createdAt,value
2023-02-22T00:00:07.980Z,23.20
2023-02-22T00:03:18.228Z,23.30
2023-02-22T00:06:26.964Z,23.50
2023-02-22T00:09:39.232Z,23.70
2023-02-22T00:12:49.264Z,23.90
2023-02-22T00:16:02.665Z,23.90
2023-02-22T00:19:11.156Z,23.80
2023-02-22T00:22:23.682Z,23.70
2023-02-22T00:25:33.278Z,23.70
2023-02-22T00:28:44.177Z,23.70
2023-02-22T00:31:58.597Z,23.60
2023-02-22T00:35:11.874Z,23.60
2023-02-22T00:38:19.753Z,23.60
2023-02-22T00:41:31.838Z,23.80
2023-02-22T00:44:42.910Z,23.90
2023-02-22T00:47:55.440Z,24.00
2023-02-22T00:51:07.989Z,24.20
2023-02-22T00:54:22.584Z,24.10
2023-02-22T00:57:36.124Z,24.00
2023-02-22T01:00:47.629Z,23.90
2023-02-22T01:03:58.274Z,23.80
2023-02-22T01:07:08.168Z,23.70
2023-02-22T01:10:16.835Z,23.70
2023-02-22T01:13:29.840Z,23.60
2023-02-22T01:16:40.452Z,23.60
2023-02-22T01:19:51.414Z,23.60
2023-02-22T01:23:05.206Z,23.60
2023-02-22T01:26:15.799Z,23.70
2023-02-22T01:29:27.234Z,23.80
2023-02-22T01:32:38.392Z,23.90
2023-02-22T01:35:49.180Z,24.00
2023-02-22T01:38:59.320Z,24.10
2023-02-22T01:42:10.584Z,24.00
2023-02-22T01:45:41.573Z,23.90
2023-02-22T01:48:54.858Z,23.80
2023-02-22T01:52:00.821Z,23.70
2023-02-22T01:55:13.377Z,23.60
2023-02-22T01:58:25.756Z,23.60
2023-02-22T02:01:35.013Z,23.50
2023-02-22T02:04:45.234Z,23.50
2023-02-22T02:07:54.678Z,23.50
2023-02-22T02:11:09.063Z,23.50
2023-02-22T02:14:18.855Z,23.40
2023-02-22T02:17:30.884Z,23.40
2023-02-22T02:20:44.914Z,23.30
2023-02-22T02:24:16.877Z,23.30
2023-02-22T02:27:27.325Z,23.30
2023-02-22T02:31:03.755Z,23.30
2023-02-22T02:34:17.536Z,23.30
2023-02-22T02:37:30.882Z,23.30
2023-02-22T02:40:40.256Z,23.20
2023-02-22T02:43:51.962Z,23.20
2023-02-22T02:47:03.545Z,23.20
2023-02-22T02:50:14.515Z,23.20
2023-02-22T02:53:25.522Z,23.10
2023-02-22T02:56:37.307Z,23.10
2023-02-22T02:59:50.552Z,23.10
2023-02-22T03:03:12.991Z,23.10
2023-02-22T03:06:44.823Z,23.00
2023-02-22T03:10:02.191Z,23.00
2023-02-22T03:13:17.656Z,23.00
2023-02-22T03:16:33.194Z,23.00
2023-02-22T03:19:45.594Z,23.00
2023-02-22T03:22:56.303Z,22.90
2023-02-22T03:26:11.070Z,22.90
2023-02-22T03:29:22.686Z,22.90
2023-02-22T03:32:34.779Z,22.90
2023-02-22T03:35:48.714Z,22.90
2023-02-22T03:38:59.293Z,22.80
2023-02-22T03:42:12.505Z,22.80
2023-02-22T03:45:22.288Z,22.80
2023-02-22T03:48:34.533Z,22.80
2023-02-22T03:51:43.918Z,22.70
2023-02-22T03:54:57.695Z,22.70
2023-02-22T03:58:10.380Z,22.70
2023-02-22T04:01:24.444Z,22.70
2023-02-22T04:04:34.257Z,22.70
2023-02-22T04:07:47.614Z,22.70
2023-02-22T04:10:56.560Z,22.70
2023-02-22T04:14:05.811Z,22.60
2023-02-22T04:17:16.001Z,22.60
2023-02-22T04:20:28.958Z,22.60
2023-02-22T04:23:40.380Z,22.60
2023-02-22T04:26:49.506Z,22.60
2023-02-22T04:30:00.596Z,22.50
2023-02-22T04:33:11.280Z,22.50
2023-02-22T04:36:24.205Z,22.40
2023-02-22T04:39:34.914Z,22.50
2023-02-22T04:42:46.984Z,22.50
2023-02-22T04:46:00.414Z,22.40
2023-02-22T04:49:09.449Z,22.40
2023-02-22T04:52:18.789Z,22.40
2023-02-22T04:55:28.666Z,22.40
2023-02-22T04:58:40.357Z,22.30
2023-02-22T05:01:53.110Z,22.30
2023-02-22T05:05:06.460Z,22.30
2023-02-22T05:08:17.654Z,22.30
2023-02-22T05:11:31.424Z,22.30
2023-02-22T05:14:43.991Z,22.20
2023-02-22T05:17:53.513Z,22.20
2023-02-22T05:21:05.367Z,22.20
2023-02-22T05:24:18.884Z,22.20
2023-02-22T05:27:30.439Z,22.20
2023-02-22T05:30:43.857Z,22.10
2023-02-22T05:33:56.617Z,22.10
2023-02-22T05:37:10.528Z,22.10
2023-02-22T05:40:21.147Z,22.10
2023-02-22T05:43:32.972Z,22.00
2023-02-22T05:46:45.489Z,22.00
2023-02-22T05:49:54.459Z,22.00
2023-02-22T05:53:05.491Z,22.00
2023-02-22T05:56:20.035Z,22.00
2023-02-22T05:59:32.688Z,22.00
2023-02-22T06:02:45.275Z,21.90
2023-02-22T06:05:56.255Z,21.90
2023-02-22T06:09:10.461Z,21.90
2023-02-22T06:12:22.826Z,21.90
2023-02-22T06:15:34.257Z,21.90
2023-02-22T06:18:43.953Z,21.80
2023-02-22T06:21:57.523Z,21.80
2023-02-22T06:25:10.152Z,21.80
2023-02-22T06:28:21.197Z,21.80
2023-02-22T06:31:30.186Z,21.70
2023-02-22T06:34:42.704Z,21.70
2023-02-22T06:37:57.038Z,21.70
2023-02-22T06:41:09.981Z,21.70
2023-02-22T06:44:21.466Z,21.70
2023-02-22T06:47:32.327Z,21.60
2023-02-22T06:50:43.187Z,21.60
2023-02-22T06:57:12.942Z,21.60
2023-02-22T07:00:28.381Z,21.50
2023-02-22T07:03:41.309Z,21.50
2023-02-22T07:06:54.039Z,21.50
2023-02-22T07:10:05.739Z,21.50
2023-02-22T07:13:18.767Z,21.50
2023-02-22T07:16:30.709Z,21.60
2023-02-22T07:19:43.876Z,21.80
2023-02-22T07:22:52.987Z,21.80
2023-02-22T07:26:05.835Z,21.70
2023-02-22T07:29:17.762Z,21.70
2023-02-22T07:32:27.591Z,21.60
2023-02-22T07:35:40.150Z,21.60
2023-02-22T07:38:55.002Z,21.50
2023-02-22T07:42:05.847Z,21.50
2023-02-22T07:45:19.331Z,21.50
2023-02-22T07:48:27.657Z,21.50
2023-02-22T07:51:36.779Z,21.50
2023-02-22T07:54:48.147Z,21.50
2023-02-22T07:57:58.719Z,21.60
2023-02-22T08:01:11.245Z,21.70
2023-02-22T08:04:23.517Z,21.70
2023-02-22T08:07:37.002Z,21.70
2023-02-22T08:10:42.470Z,21.60
2023-02-22T08:13:49.832Z,21.50
2023-02-22T08:16:58.134Z,21.50
2023-02-22T08:20:12.391Z,21.50
2023-02-22T08:23:21.920Z,21.50
2023-02-22T08:26:31.875Z,21.50
2023-02-22T08:29:41.860Z,21.60
2023-02-22T08:32:53.582Z,21.80
2023-02-22T08:36:04.477Z,21.70
2023-02-22T08:39:16.640Z,21.70
2023-02-22T08:42:28.846Z,21.60
2023-02-22T08:45:39.451Z,21.60
2023-02-22T08:48:57.017Z,21.50
2023-02-22T08:52:08.728Z,21.50
2023-02-22T08:55:19.875Z,21.50
2023-02-22T08:58:32.677Z,21.60
2023-02-22T09:01:45.179Z,21.80
2023-02-22T09:04:54.478Z,21.80
2023-02-22T09:08:05.846Z,21.70
2023-02-22T09:11:17.201Z,21.60
2023-02-22T09:14:25.379Z,21.60
2023-02-22T09:17:38.629Z,21.50
2023-02-22T09:20:49.637Z,21.50
2023-02-22T09:24:02.606Z,21.50
2023-02-22T09:27:13.956Z,21.60
2023-02-22T09:30:25.176Z,21.70
2023-02-22T09:33:34.908Z,21.70
2023-02-22T09:36:44.549Z,21.70
2023-02-22T09:39:53.946Z,21.70
2023-02-22T09:43:09.634Z,21.60
2023-02-22T09:46:35.265Z,21.50
2023-02-22T09:49:49.390Z,21.50
2023-02-22T09:53:03.422Z,21.50
2023-02-22T09:56:14.383Z,21.60
2023-02-22T09:59:30.164Z,21.70
2023-02-22T10:02:43.800Z,21.80
2023-02-22T10:05:57.454Z,21.70
2023-02-22T10:09:09.674Z,21.60
2023-02-22T10:12:22.551Z,21.60
2023-02-22T10:15:56.451Z,21.50
2023-02-22T10:19:11.339Z,21.50
2023-02-22T10:22:28.452Z,21.50
2023-02-22T10:25:41.700Z,21.60
2023-02-22T10:28:56.407Z,21.70
2023-02-22T10:32:08.384Z,21.70
2023-02-22T10:35:24.228Z,21.60
2023-02-22T10:38:36.062Z,21.60
2023-02-22T10:41:47.132Z,21.60
2023-02-22T10:44:58.788Z,21.60
2023-02-22T10:48:14.180Z,21.50
2023-02-22T10:51:27.449Z,21.50
2023-02-22T10:54:40.084Z,21.50
2023-02-22T10:57:52.232Z,21.50
2023-02-22T11:01:01.642Z,21.60
2023-02-22T11:04:17.915Z,21.70
2023-02-22T11:07:27.835Z,21.70
2023-02-22T11:10:39.783Z,21.60
2023-02-22T11:13:53.666Z,21.60
2023-02-22T11:17:06.586Z,21.50
2023-02-22T11:20:25.922Z,21.50
2023-02-22T11:23:38.309Z,21.50
2023-02-22T11:26:50.621Z,21.50
2023-02-22T11:30:00.787Z,21.70
2023-02-22T11:33:13.414Z,21.70
2023-02-22T11:36:42.643Z,21.70
2023-02-22T11:39:53.224Z,21.60
2023-02-22T11:43:14.569Z,21.60
2023-02-22T11:46:26.934Z,21.50
2023-02-22T11:49:38.861Z,21.50
2023-02-22T11:52:48.883Z,21.50
2023-02-22T11:56:05.774Z,21.60
2023-02-22T11:59:23.904Z,21.70
2023-02-22T12:02:56.925Z,21.80
2023-02-22T12:06:16.309Z,21.70
2023-02-22T12:09:25.293Z,21.60
2023-02-22T12:12:36.262Z,21.50
2023-02-22T12:15:48.162Z,21.50
2023-02-22T12:19:14.339Z,21.50
2023-02-22T12:22:27.938Z,21.50
2023-02-22T12:25:41.367Z,21.70
2023-02-22T12:28:48.891Z,21.80
2023-02-22T12:32:00.237Z,21.90
2023-02-22T12:35:16.510Z,22.10
2023-02-22T12:38:30.078Z,22.10
2023-02-22T12:41:40.667Z,22.20
2023-02-22T12:44:53.812Z,22.30
2023-02-22T12:48:09.418Z,22.40
2023-02-22T12:51:27.985Z,22.50
2023-02-22T12:54:45.624Z,22.60
2023-02-22T12:57:58.879Z,22.70
2023-02-22T13:01:10.351Z,22.80
2023-02-22T13:04:22.036Z,22.90
2023-02-22T13:07:39.194Z,23.00
2023-02-22T13:11:19.807Z,22.90
2023-02-22T13:14:50.489Z,22.80
2023-02-22T13:18:07.879Z,22.70
2023-02-22T13:21:25.161Z,22.80
2023-02-22T13:24:37.677Z,22.90
2023-02-22T13:27:48.562Z,23.00
2023-02-22T13:31:18.037Z,23.00
2023-02-22T13:34:36.425Z,23.20
2023-02-22T13:37:54.011Z,23.10
2023-02-22T13:41:24.611Z,23.00
2023-02-22T13:44:50.643Z,22.90
2023-02-22T13:48:16.892Z,22.90
2023-02-22T13:51:41.161Z,23.00
2023-02-22T13:54:53.527Z,23.10
2023-02-22T13:58:09.521Z,23.30
2023-02-22T14:01:31.242Z,23.30
2023-02-22T14:04:44.687Z,23.30
2023-02-22T14:07:56.937Z,23.20
2023-02-22T14:11:06.977Z,23.10
2023-02-22T14:14:18.979Z,23.20
2023-02-22T14:17:29.695Z,23.30
2023-02-22T14:20:41.626Z,23.40
2023-02-22T14:23:55.296Z,23.50
2023-02-22T14:27:09.025Z,23.60
2023-02-22T14:30:29.882Z,23.60
2023-02-22T14:37:33.424Z,23.30
2023-02-22T14:40:45.508Z,23.30
2023-02-22T14:43:56.463Z,23.30
2023-02-22T14:47:05.714Z,23.30
2023-02-22T14:50:18.441Z,23.40
2023-02-22T14:53:32.715Z,23.50
2023-02-22T14:56:48.336Z,23.60
2023-02-22T15:00:20.607Z,23.60
2023-02-22T15:03:36.326Z,23.60
2023-02-22T15:06:50.144Z,23.50
2023-02-22T15:10:14.810Z,23.40
2023-02-22T15:13:24.897Z,23.30
2023-02-22T15:16:35.319Z,23.20
2023-02-22T15:19:48.493Z,23.10
2023-02-22T15:23:02.572Z,23.30
2023-02-22T15:26:14.917Z,23.30
2023-02-22T15:29:27.807Z,23.40
2023-02-22T15:33:01.375Z,23.50
2023-02-22T15:35:59.586Z,23.50
2023-02-22T15:39:12.975Z,23.50
2023-02-22T15:42:25.452Z,23.30
2023-02-22T15:45:39.025Z,23.20
2023-02-22T15:48:49.121Z,23.10
2023-02-22T15:52:11.255Z,23.20
2023-02-22T15:55:25.530Z,23.30
2023-02-22T15:58:35.732Z,23.40
2023-02-22T16:01:48.104Z,23.50
2023-02-22T16:05:03.795Z,23.50
2023-02-22T16:08:20.563Z,23.40
2023-02-22T16:11:33.898Z,23.30
2023-02-22T16:14:45.449Z,23.20
2023-02-22T16:18:02.289Z,23.10
2023-02-22T16:21:07.585Z,23.00
2023-02-22T16:24:30.325Z,23.10
2023-02-22T16:27:49.522Z,23.20
2023-02-22T16:31:04.097Z,23.30
2023-02-22T16:34:12.794Z,23.40
2023-02-22T16:37:26.353Z,23.40
2023-02-22T16:40:38.142Z,23.50
2023-02-22T16:43:48.788Z,23.50
2023-02-22T16:46:59.340Z,23.40
2023-02-22T16:50:12.323Z,23.20
2023-02-22T16:53:28.259Z,23.10
2023-02-22T16:56:38.893Z,23.00
2023-02-22T16:59:54.418Z,22.90
2023-02-22T17:03:05.141Z,23.10
2023-02-22T17:06:18.804Z,23.20
2023-02-22T17:09:31.260Z,23.30
2023-02-22T17:12:45.555Z,23.50
2023-02-22T17:15:55.549Z,23.60
2023-02-22T17:19:05.618Z,23.60
2023-02-22T17:22:15.862Z,23.60
2023-02-22T17:25:29.931Z,23.40
2023-02-22T17:28:39.460Z,23.30
2023-02-22T17:31:49.785Z,23.20
2023-02-22T17:35:03.071Z,23.30
2023-02-22T17:38:10.613Z,23.40
2023-02-22T17:41:21.566Z,23.50
2023-02-22T17:44:31.630Z,23.60
2023-02-22T17:47:39.767Z,23.70
2023-02-22T17:50:50.050Z,23.60
2023-02-22T17:54:03.197Z,23.40
2023-02-22T17:57:16.937Z,23.30
2023-02-22T18:00:33.679Z,23.20
2023-02-22T18:03:46.423Z,23.20
2023-02-22T18:06:55.905Z,23.20
2023-02-22T18:10:07.059Z,23.40
2023-02-22T18:13:20.875Z,23.50
2023-02-22T18:16:31.587Z,23.60
2023-02-22T18:19:44.216Z,23.70
2023-02-22T18:22:53.653Z,23.60
2023-02-22T18:26:12.505Z,23.50
2023-02-22T18:29:16.084Z,23.40
2023-02-22T18:32:30.249Z,23.40
2023-02-22T18:35:44.614Z,23.30
2023-02-22T18:38:57.691Z,23.20
2023-02-22T18:42:09.333Z,23.20
2023-02-22T18:45:21.070Z,23.20
2023-02-22T18:48:33.400Z,23.20
2023-02-22T18:51:46.590Z,23.30
2023-02-22T18:54:55.063Z,23.40
2023-02-22T18:58:06.519Z,23.50
2023-02-22T19:01:19.471Z,23.60
2023-02-22T19:04:32.577Z,23.60
2023-02-22T19:07:45.882Z,23.50
2023-02-22T19:10:51.363Z,23.40
2023-02-22T19:14:06.019Z,23.40
2023-02-22T19:17:18.593Z,23.40
2023-02-22T19:20:32.634Z,23.60
2023-02-22T19:23:46.080Z,23.60
2023-02-22T19:26:58.941Z,23.70
2023-02-22T19:30:10.413Z,23.60
2023-02-22T19:33:25.233Z,23.60
2023-02-22T19:36:37.016Z,23.60
2023-02-22T19:39:50.977Z,23.60
2023-02-22T19:43:01.044Z,23.70
2023-02-22T19:46:13.571Z,23.70
2023-02-22T19:52:36.151Z,23.80
2023-02-22T19:55:49.447Z,23.80
2023-02-22T19:58:56.069Z,23.80
2023-02-22T20:02:09.206Z,23.70
2023-02-22T20:05:20.514Z,23.80
2023-02-22T20:08:29.446Z,23.80
2023-02-22T20:11:41.519Z,23.90
2023-02-22T20:14:52.540Z,23.90
2023-02-22T20:18:03.266Z,24.00
2023-02-22T20:21:17.414Z,24.00
2023-02-22T20:24:27.000Z,24.00
2023-02-22T20:27:38.435Z,24.00
2023-02-22T20:30:51.728Z,24.10
2023-02-22T20:34:03.582Z,24.10
2023-02-22T20:37:15.828Z,24.00
2023-02-22T20:40:29.011Z,24.10
2023-02-22T20:43:42.473Z,24.10
2023-02-22T20:46:53.266Z,24.10
2023-02-22T20:50:05.075Z,24.20
2023-02-22T20:53:14.856Z,24.20
2023-02-22T20:56:24.335Z,24.20
2023-02-22T20:59:36.992Z,24.20
2023-02-22T21:02:50.398Z,24.20
2023-02-22T21:05:58.512Z,24.20
2023-02-22T21:09:09.376Z,24.20
2023-02-22T21:12:20.473Z,24.30
2023-02-22T21:15:32.126Z,24.30
2023-02-22T21:18:42.331Z,24.30
2023-02-22T21:21:53.942Z,24.30
2023-02-22T21:25:03.376Z,24.30
2023-02-22T21:28:13.036Z,24.20
2023-02-22T21:31:21.933Z,24.20
2023-02-22T21:34:33.891Z,24.20
2023-02-22T21:37:44.273Z,24.30
2023-02-22T21:40:55.819Z,24.30
2023-02-22T21:44:08.467Z,24.30
2023-02-22T21:47:19.438Z,24.40
2023-02-22T21:50:30.472Z,24.30
2023-02-22T21:53:40.606Z,24.30
2023-02-22T21:56:49.653Z,24.30
2023-02-22T22:00:00.755Z,24.30
2023-02-22T22:03:13.231Z,24.30
2023-02-22T22:06:25.190Z,24.30
2023-02-22T22:09:37.813Z,24.30
2023-02-22T22:12:49.341Z,24.30
2023-02-22T22:16:00.351Z,24.30
2023-02-22T22:19:12.304Z,24.30
2023-02-22T22:22:24.830Z,24.30
2023-02-22T22:25:39.900Z,24.30
2023-02-22T22:28:50.812Z,24.40
2023-02-22T22:32:01.469Z,24.50
2023-02-22T22:35:16.563Z,24.60
2023-02-22T22:38:28.742Z,24.60
2023-02-22T22:41:41.425Z,24.60
2023-02-22T22:44:55.113Z,24.60
2023-02-22T22:48:07.408Z,24.50
2023-02-22T22:51:21.701Z,24.50
2023-02-22T22:54:32.745Z,24.50
2023-02-22T22:57:41.007Z,24.60
2023-02-22T23:00:50.563Z,24.60
2023-02-22T23:04:02.355Z,24.60
2023-02-22T23:07:11.999Z,24.60
2023-02-22T23:10:26.961Z,24.70
2023-02-22T23:13:36.230Z,24.70
2023-02-22T23:16:49.576Z,24.70
2023-02-22T23:20:01.281Z,24.70
2023-02-22T23:23:14.628Z,24.70
2023-02-22T23:26:28.169Z,24.60
2023-02-22T23:29:41.139Z,24.60
2023-02-22T23:32:51.327Z,24.60
2023-02-22T23:36:01.589Z,24.60
2023-02-22T23:39:15.206Z,24.60
2023-02-22T23:42:26.019Z,24.60
2023-02-22T23:45:38.803Z,24.70
2023-02-22T23:48:51.377Z,24.70
2023-02-22T23:52:03.491Z,24.70
2023-02-22T23:55:21.355Z,24.60
2023-02-22T23:58:35.132Z,24.50
